Time;durP1;ratioP1;P1;durP2;ratioP2;P2;SDS_P1;SDS_P2;PMS_P1;PMS_P2;Temp;Humidity;BMP_temperature;BMP_pressure;BME280_temperature;BME280_humidity;BME280_pressure;Samples;Min_cycle;Max_cycle;Signal;HPM_P1;HPM_P2
2022/02/24 00:00:00;;;;;;;8.70;2.08;;;8.00;99.90;;;;;;6704151;88;20208;-77
2022/02/24 00:10:01;;;;;;;6.97;1.62;;;8.00;99.90;;;;;;6703636;88;20226;-78
2022/02/24 00:20:02;;;;;;;7.07;1.50;;;7.70;99.90;;;;;;6710136;88;20181;-78
2022/02/24 00:30:04;;;;;;;7.35;1.67;;;7.80;99.90;;;;;;6728389;88;20220;-78
2022/02/24 00:40:05;;;;;;;4.12;1.40;;;7.60;99.90;;;;;;6708347;88;20185;-80
2022/02/24 00:50:06;;;;;;;4.93;1.40;;;7.60;99.90;;;;;;6707969;88;20207;-79
2022/02/24 01:00:07;;;;;;;4.78;1.20;;;7.50;99.90;;;;;;6704646;88;20252;-78
2022/02/24 01:10:09;;;;;;;5.00;1.40;;;7.70;99.90;;;;;;6708865;88;20202;-78
2022/02/24 01:20:10;;;;;;;4.95;1.42;;;7.80;99.90;;;;;;6704368;88;20240;-78
2022/02/24 01:30:11;;;;;;;7.35;1.50;;;7.90;99.90;;;;;;6711739;88;20734;-78
2022/02/24 01:40:13;;;;;;;5.68;1.40;;;8.00;99.90;;;;;;6703765;88;20323;-79
2022/02/24 01:50:14;;;;;;;7.05;1.40;;;8.00;99.90;;;;;;6703676;88;20251;-79
2022/02/24 02:00:15;;;;;;;3.83;1.35;;;8.00;99.90;;;;;;6707586;88;20209;-78
2022/02/24 02:10:15;;;;;;;5.15;1.35;;;7.80;99.90;;;;;;6707325;88;20187;-78
2022/02/24 02:20:17;;;;;;;7.07;1.50;;;7.80;99.90;;;;;;6708384;88;20314;-78
2022/02/24 02:30:19;;;;;;;6.90;2.10;;;7.60;99.90;;;;;;6707416;88;20199;-78
2022/02/24 02:40:19;;;;;;;8.25;1.87;;;7.40;99.90;;;;;;6707107;88;20622;-78
2022/02/24 02:50:20;;;;;;;6.55;2.10;;;7.40;99.90;;;;;;6707185;88;20201;-79
2022/02/24 03:00:20;;;;;;;6.12;2.05;;;7.30;99.90;;;;;;6707749;88;20239;-78
2022/02/24 03:10:21;;;;;;;7.22;1.95;;;7.40;99.90;;;;;;6709960;88;20673;-78
2022/02/24 03:20:21;;;;;;;5.53;1.50;;;7.50;99.90;;;;;;6705957;88;20181;-78
2022/02/24 03:40:26;;;;;;;6.00;1.83;;;7.30;99.90;;;;;;6721258;88;20203;-76
2022/02/24 03:50:27;;;;;;;7.90;1.83;;;7.30;99.90;;;;;;6703477;88;20835;-76
2022/02/24 04:00:27;;;;;;;6.78;1.73;;;7.40;99.90;;;;;;6693846;88;20706;-75
2022/02/24 04:10:28;;;;;;;5.90;1.60;;;7.50;99.90;;;;;;6698887;88;20605;-76
2022/02/24 04:20:28;;;;;;;8.07;1.43;;;7.70;99.90;;;;;;6698971;88;20200;-77
2022/02/24 04:30:29;;;;;;;4.80;1.30;;;7.80;99.90;;;;;;6695802;88;20484;-76
2022/02/24 04:40:30;;;;;;;4.50;1.10;;;8.00;99.90;;;;;;6699375;88;20186;-76
2022/02/24 04:50:30;;;;;;;3.20;1.12;;;8.00;99.90;;;;;;6699222;88;20191;-77
2022/02/24 05:00:31;;;;;;;4.03;1.23;;;8.10;99.90;;;;;;6698965;88;20185;-76
2022/02/24 05:10:31;;;;;;;2.60;1.20;;;8.00;99.90;;;;;;6698858;88;20558;-77
2022/02/24 05:20:32;;;;;;;4.95;1.35;;;8.00;99.90;;;;;;6709240;88;20255;-76
2022/02/24 05:30:33;;;;;;;5.20;1.45;;;7.90;99.90;;;;;;6704627;88;20205;-77
2022/02/24 05:40:33;;;;;;;5.97;1.48;;;8.00;99.90;;;;;;6702186;88;20207;-77
2022/02/24 05:50:34;;;;;;;6.25;1.27;;;7.90;99.90;;;;;;6698169;88;20187;-76
2022/02/24 06:00:35;;;;;;;6.35;1.42;;;8.00;99.90;;;;;;6693689;88;20726;-76
2022/02/24 06:10:36;;;;;;;6.32;1.87;;;7.80;99.90;;;;;;6697937;88;20220;-77
2022/02/24 06:20:37;;;;;;;4.15;1.73;;;7.70;99.90;;;;;;6694161;88;20183;-76
2022/02/24 06:30:37;;;;;;;9.80;1.75;;;7.90;99.90;;;;;;6699236;88;20178;-77
2022/02/24 06:40:38;;;;;;;4.85;1.50;;;7.90;99.90;;;;;;6701042;88;20200;-77
2022/02/24 06:50:38;;;;;;;7.35;1.90;;;7.90;99.90;;;;;;6698667;88;20195;-77
2022/02/24 07:00:40;;;;;;;5.20;1.60;;;7.90;99.90;;;;;;6701412;88;20182;-77
2022/02/24 07:10:40;;;;;;;5.37;2.00;;;8.00;99.90;;;;;;6701295;88;20509;-79
2022/02/24 07:20:41;;;;;;;5.60;1.85;;;8.50;99.90;;;;;;6702457;88;20657;-77
2022/02/24 07:30:42;;;;;;;7.73;1.57;;;8.80;99.90;;;;;;6710335;88;20378;-75
2022/02/24 07:40:42;;;;;;;7.73;1.73;;;9.10;99.90;;;;;;6709112;88;21087;-76
2022/02/24 07:50:43;;;;;;;6.45;1.35;;;9.20;99.90;;;;;;6702605;88;20526;-77
2022/02/24 08:00:45;;;;;;;6.43;1.52;;;9.20;99.90;;;;;;6702024;88;20285;-76
2022/02/24 08:10:47;;;;;;;5.72;1.20;;;9.30;99.90;;;;;;6717193;88;20395;-77
2022/02/24 08:20:48;;;;;;;4.68;1.50;;;9.40;99.90;;;;;;6726927;88;20260;-77
2022/02/24 08:30:48;;;;;;;5.93;1.70;;;9.40;99.90;;;;;;6724868;88;20210;-76
2022/02/24 08:40:49;;;;;;;5.82;1.40;;;9.30;99.90;;;;;;6720117;88;20494;-77
2022/02/24 08:50:50;;;;;;;4.47;1.40;;;9.60;99.90;;;;;;6721008;88;20225;-77
2022/02/24 09:00:51;;;;;;;5.55;1.65;;;9.90;99.90;;;;;;6713047;88;21472;-75
2022/02/24 09:10:51;;;;;;;6.57;1.90;;;9.60;99.90;;;;;;6701750;88;20187;-76
2022/02/24 09:20:52;;;;;;;6.87;2.15;;;9.40;99.90;;;;;;6710573;88;20182;-77
2022/02/24 09:30:54;;;;;;;10.75;1.80;;;9.50;99.90;;;;;;6719296;88;20185;-76
2022/02/24 09:40:56;;;;;;;8.18;2.03;;;9.50;99.90;;;;;;6707951;77;20720;-76
2022/02/24 09:50:58;;;;;;;5.62;1.67;;;9.70;99.90;;;;;;6706276;88;20244;-75
2022/02/24 10:01:01;;;;;;;5.22;1.58;;;9.70;99.90;;;;;;6703828;88;20206;-74
2022/02/24 10:11:14;;;;;;;3.95;1.25;;;10.10;99.90;;;;;;6697734;88;20231;-73
2022/02/24 10:21:17;;;;;;;4.68;1.17;;;10.30;99.90;;;;;;6702628;88;20692;-74
2022/02/24 10:31:23;;;;;;;5.65;1.10;;;11.00;99.90;;;;;;6704746;88;20208;-74
2022/02/24 10:41:36;;;;;;;3.53;1.05;;;10.90;99.90;;;;;;6701552;88;20204;-73
2022/02/24 10:51:37;;;;;;;2.67;0.85;;;11.20;99.90;;;;;;6697166;88;20187;-73
2022/02/24 11:01:38;;;;;;;4.03;1.00;;;11.30;99.90;;;;;;6697397;88;20202;-74
2022/02/24 11:11:39;;;;;;;4.05;0.90;;;11.50;99.90;;;;;;6695069;88;20269;-74
2022/02/24 11:21:42;;;;;;;2.85;0.98;;;11.60;99.90;;;;;;6708722;88;20199;-74
2022/02/24 11:32:03;;;;;;;1.27;0.50;;;11.30;99.90;;;;;;6707096;88;20260;-73
2022/02/24 11:42:04;;;;;;;1.77;0.90;;;11.00;99.90;;;;;;6698733;88;20662;-75
2022/02/24 11:52:23;;;;;;;3.45;0.90;;;10.70;99.90;;;;;;6702965;88;20625;-73
2022/02/24 12:02:41;;;;;;;3.00;1.00;;;10.40;99.90;;;;;;6703820;88;20208;-73
2022/02/24 12:12:41;;;;;;;3.50;0.80;;;10.50;99.90;;;;;;6710708;88;20194;-73
2022/02/24 12:22:43;;;;;;;2.55;1.00;;;10.80;99.90;;;;;;6698216;88;20210;-74
2022/02/24 12:33:05;;;;;;;2.33;0.90;;;10.80;99.90;;;;;;6702394;88;20560;-74
2022/02/24 12:43:11;;;;;;;3.35;0.90;;;12.00;99.90;;;;;;6698837;88;20233;-74
2022/02/24 12:53:15;;;;;;;3.47;0.73;;;11.60;99.90;;;;;;6702888;88;20244;-74
2022/02/24 13:03:16;;;;;;;3.17;0.70;;;11.40;99.90;;;;;;6698258;88;20273;-74
2022/02/24 13:13:24;;;;;;;1.42;0.68;;;13.00;99.90;;;;;;6696031;88;20213;-74
2022/02/24 13:23:25;;;;;;;2.15;0.60;;;13.50;97.90;;;;;;6697761;88;20252;-75
2022/02/24 13:33:35;;;;;;;3.10;0.52;;;13.40;97.70;;;;;;6696186;88;20329;-74
2022/02/24 13:43:37;;;;;;;1.70;0.50;;;12.00;99.90;;;;;;6697937;88;20194;-74
2022/02/24 13:53:38;;;;;;;1.35;0.40;;;12.00;99.90;;;;;;6699171;88;20179;-74
2022/02/24 14:03:39;;;;;;;1.80;0.60;;;12.50;99.10;;;;;;6700051;88;20204;-74
2022/02/24 14:13:40;;;;;;;1.20;0.47;;;12.20;99.80;;;;;;6696472;88;20176;-74
2022/02/24 14:23:42;;;;;;;1.75;0.50;;;13.00;98.80;;;;;;6701960;88;20208;-74
2022/02/24 14:33:43;;;;;;;1.58;0.43;;;13.40;97.40;;;;;;6712061;88;20761;-73
2022/02/24 14:43:44;;;;;;;2.78;0.47;;;12.90;98.10;;;;;;6696314;88;20332;-74
2022/02/24 14:53:45;;;;;;;1.40;0.50;;;13.10;97.80;;;;;;6696144;88;20917;-74
2022/02/24 15:03:46;;;;;;;0.93;0.30;;;13.50;97.70;;;;;;6703269;88;20189;-74
2022/02/24 15:13:46;;;;;;;2.05;0.40;;;12.50;98.60;;;;;;6710039;88;20198;-74
2022/02/24 15:23:47;;;;;;;1.95;0.40;;;12.90;98.90;;;;;;6697708;88;20191;-73
2022/02/24 15:43:51;;;;;;;1.75;0.50;;;12.10;99.90;;;;;;6696738;88;20240;-77
2022/02/24 15:53:51;;;;;;;1.10;0.20;;;11.80;99.90;;;;;;6699408;88;20230;-76
2022/02/24 16:03:52;;;;;;;2.47;0.30;;;4.10;99.90;;;;;;6697237;88;20716;-79
2022/02/24 16:13:54;;;;;;;1.30;0.40;;;3.60;99.90;;;;;;6686770;88;20611;-79
2022/02/24 16:23:54;;;;;;;0.70;0.30;;;3.80;99.90;;;;;;6683920;88;20212;-78
2022/02/24 16:33:56;;;;;;;0.93;0.30;;;3.90;99.90;;;;;;6685353;88;20186;-78
2022/02/24 16:43:59;;;;;;;1.30;0.40;;;4.00;99.90;;;;;;6686551;88;20185;-78
2022/02/24 16:54:00;;;;;;;0.68;0.28;;;4.10;99.90;;;;;;6688488;88;20201;-78
2022/02/24 17:04:01;;;;;;;0.52;0.20;;;4.00;99.90;;;;;;6700620;88;20186;-79
2022/02/24 17:14:01;;;;;;;1.35;0.28;;;4.20;99.90;;;;;;6688211;88;20651;-79
2022/02/24 17:24:05;;;;;;;1.00;0.30;;;4.30;99.90;;;;;;6688581;88;20238;-78
2022/02/24 17:34:07;;;;;;;1.58;0.40;;;4.50;99.90;;;;;;6686558;88;20330;-78
2022/02/24 17:44:11;;;;;;;1.37;0.50;;;4.60;99.90;;;;;;6687099;88;20603;-79
2022/02/24 17:54:12;;;;;;;1.80;0.47;;;4.70;99.90;;;;;;6689886;88;20273;-78
2022/02/24 18:04:12;;;;;;;1.48;0.40;;;4.90;99.90;;;;;;6695287;88;20330;-78
2022/02/24 18:14:13;;;;;;;1.27;0.52;;;5.00;99.90;;;;;;6686559;88;20696;-79
2022/02/24 18:24:13;;;;;;;3.08;0.80;;;4.80;99.90;;;;;;6689242;88;20996;-82
2022/02/24 18:34:14;;;;;;;4.87;1.00;;;5.00;99.90;;;;;;6696204;88;20227;-80
2022/02/24 18:44:15;;;;;;;3.17;0.90;;;4.80;99.90;;;;;;6701251;88;20229;-81
2022/02/24 18:54:15;;;;;;;2.55;1.10;;;4.70;99.90;;;;;;6691337;88;20197;-79
2022/02/24 19:04:16;;;;;;;5.25;1.42;;;4.60;99.90;;;;;;6689952;88;20218;-79
2022/02/24 19:14:17;;;;;;;3.20;1.12;;;4.50;99.90;;;;;;6686988;88;20222;-79
2022/02/24 19:24:18;;;;;;;2.70;1.02;;;4.80;99.90;;;;;;6686915;88;20220;-77
2022/02/24 19:34:18;;;;;;;3.37;1.33;;;4.70;99.90;;;;;;6685317;88;20206;-77
2022/02/24 19:44:20;;;;;;;3.95;1.50;;;4.80;99.90;;;;;;6687317;88;20191;-79
2022/02/24 19:54:21;;;;;;;4.55;1.35;;;4.80;99.90;;;;;;6688067;88;20721;-77
2022/02/24 20:04:22;;;;;;;4.28;0.73;;;3.90;99.90;;;;;;6696635;88;20355;-77
2022/02/24 20:14:24;;;;;;;1.10;0.40;;;3.70;99.90;;;;;;6695010;88;20693;-78
2022/02/24 20:24:30;;;;;;;0.80;0.35;;;3.30;99.90;;;;;;6699422;88;20202;-78
2022/02/24 20:34:31;;;;;;;3.90;0.70;;;3.30;99.90;;;;;;6696180;88;20637;-78
2022/02/24 20:44:33;;;;;;;1.40;0.60;;;3.30;99.90;;;;;;6699977;88;20227;-78
2022/02/24 20:54:34;;;;;;;1.87;0.60;;;2.90;99.90;;;;;;6708518;88;20187;-78
2022/02/24 21:04:34;;;;;;;2.55;0.80;;;3.00;99.90;;;;;;6678627;89;20205;-79
2022/02/24 21:14:36;;;;;;;2.30;1.10;;;3.00;99.90;;;;;;6678569;89;20187;-78
2022/02/24 21:24:36;;;;;;;2.45;1.15;;;3.10;99.90;;;;;;6680413;89;20202;-78
2022/02/24 21:34:37;;;;;;;3.87;1.40;;;3.20;99.90;;;;;;6689716;77;20845;-74
2022/02/24 21:44:38;;;;;;;2.35;1.65;;;3.30;99.90;;;;;;6714334;88;20246;-72
2022/02/24 21:54:38;;;;;;;4.55;1.83;;;3.30;99.90;;;;;;6710250;88;20209;-73
2022/02/24 22:04:39;;;;;;;4.43;2.00;;;3.30;99.90;;;;;;6711477;88;20201;-72
2022/02/24 22:14:39;;;;;;;5.03;2.10;;;3.40;99.90;;;;;;6709667;88;20630;-72
2022/02/24 22:24:40;;;;;;;5.15;1.60;;;3.00;99.90;;;;;;6704128;88;20612;-72
2022/02/24 22:34:41;;;;;;;5.00;1.52;;;3.10;99.90;;;;;;6704644;88;20535;-73
2022/02/24 22:44:42;;;;;;;5.10;1.20;;;2.90;99.90;;;;;;6709616;88;20211;-72
2022/02/24 22:54:42;;;;;;;5.40;1.40;;;2.90;99.90;;;;;;6707357;88;20767;-72
2022/02/24 23:15:22;;;;;;;7.20;2.70;;;2.70;99.90;;;;;;6680514;88;20178;-74
2022/02/24 23:25:22;;;;;;;6.25;3.05;;;2.80;99.90;;;;;;6710887;88;20186;-73
2022/02/24 23:35:23;;;;;;;6.53;2.75;;;2.80;99.90;;;;;;6714048;88;20724;-73
2022/02/24 23:45:24;;;;;;;4.12;1.85;;;2.70;99.90;;;;;;6723911;88;20717;-72
2022/02/24 23:55:24;;;;;;;6.62;2.30;;;3.00;99.90;;;;;;6716670;88;20212;-72
